Date,TemperatureHighF,TemperatureAvgF,TemperatureLowF,DewpointHighF,DewpointAvgF,DewpointLowF,HumidityHigh,HumidityAvg,HumidityLow,PressureMaxIn,PressureMinIn,WindSpeedMaxMPH,WindSpeedAvgMPH,GustSpeedMaxMPH,PrecipitationSumIn
2012-1-1,77.9,58.3,45.8,42.7,34.9,26.2,68,45,20,30.04,29.97,5,2,8,0.00
2012-1-2,60.5,38.3,43.1,53.7,12.5,-99.9,100,71,62,30.19,30.03,3,-218,6,0.00
2012-1-3,66.8,50.8,47.3,50.2,30.2,-99.9,91,60,51,30.19,30.10,6,-48,17,0.00
2012-1-4,56.3,51.8,48.6,40.6,35.5,30.5,72,54,41,30.18,30.14,5,2,10,0.00
2012-1-5,72.8,44.7,40.8,45.0,18.2,-99.9,84,55,33,30.15,30.02,5,2,16,0.00
2012-1-6,61.5,43.7,36.0,45.1,38.7,33.1,98,83,50,30.07,29.96,3,1,10,0.00
2012-1-7,62.0,38.5,45.8,39.9,-10.8,-99.9,78,33,23,30.08,29.97,14,-257,20,0.00
2012-1-8,68.9,40.2,46.1,28.5,-14.2,-99.9,41,22,22,30.10,30.00,5,2,16,0.00
2012-1-9,71.3,36.7,44.9,36.2,-6.1,-99.9,62,35,26,30.10,30.00,3,-92,10,0.00
2012-1-10,66.4,45.1,41.3,37.8,23.4,-99.9,82,54,27,30.05,29.94,3,1,8,0.00
2012-1-11,45.4,43.8,42.3,33.5,32.6,32.0,70,65,60,29.96,29.94,2,1,6,0.00
2012-1-12,68.3,53.5,45.7,33.9,30.2,23.2,57,41,29,29.96,29.88,6,3,14,0.00
2012-1-13,49.8,48.0,46.0,29.8,27.2,25.0,52,44,40,30.03,29.98,2,2,6,0.00
2012-1-14,74.2,54.5,43.5,34.9,27.0,20.6,51,36,20,30.04,29.96,2,1,6,0.00
2012-1-15,57.3,43.9,33.8,41.0,31.9,25.0,82,63,48,30.02,29.90,4,1,12,0.00
2012-1-16,51.4,37.1,29.1,26.9,22.5,14.4,83,58,27,30.21,30.02,4,2,12,0.00
2012-1-17,55.0,39.6,29.0,31.0,25.7,19.9,83,60,28,30.28,30.20,4,2,11,0.00
2012-1-18,58.0,41.9,31.3,36.7,30.4,22.8,84,66,38,30.29,30.14,4,2,11,0.00
2012-1-19,48.9,44.0,34.3,46.2,42.3,29.9,100,94,74,30.14,29.96,2,1,7,0.04
2012-1-20,52.9,50.1,46.4,52.8,50.1,46.4,100,100,100,29.96,29.72,2,1,14,1.82
2012-1-21,52.8,42.2,34.7,52.8,40.2,-99.9,100,95,84,30.05,29.65,4,1,14,0.45
2012-1-22,49.1,43.7,36.6,47.1,42.7,35.2,100,96,87,30.07,29.73,4,1,16,0.64
2012-1-23,47.4,41.6,46.7,47.4,-32.1,-99.9,100,46,100,29.74,29.65,7,-75,12,0.78
2012-1-24,58.3,48.5,40.6,49.1,43.2,39.2,100,83,57,30.29,30.03,3,1,12,0.00
2012-1-25,61.0,34.1,48.6,53.3,-4.4,-99.9,97,61,72,30.28,30.20,12,3,17,0.00
2012-1-26,59.6,33.1,52.8,54.8,-12.2,-99.9,100,55,79,30.22,30.09,5,-83,10,0.00
2012-1-27,61.6,40.2,47.7,50.5,2.2,-99.9,100,48,29,30.11,30.06,6,-135,16,0.00
2012-1-28,57.8,8.6,44.6,31.1,-87.1,-99.9,52,6,30,30.18,30.08,7,1,11,0.00
2012-1-29,-200.0,0.0,200.0,-99.9,-99.9,-99.9,0,0,100,30.11,29.98,0,0,0,0.00
2012-1-30,44.2,3.7,41.5,43.9,-87.7,-99.9,99,8,99,29.97,29.86,3,0,7,0.00
2012-1-31,59.8,35.5,41.3,48.5,13.3,-99.9,100,75,64,30.08,29.95,5,0,13,0.00
2012-2-1,42.3,40.8,37.8,42.3,40.6,37.5,100,99,98,30.13,30.09,2,0,7,0.00
2012-2-3,52.2,16.8,44.1,35.9,-55.7,-99.9,70,18,31,29.92,29.84,7,2,0,0.00
2012-2-4,70.4,14.4,45.8,36.9,-67.9,-99.9,61,10,22,29.97,29.87,4,0,7,0.00
2012-2-5,68.8,52.3,44.8,40.0,29.1,-99.9,63,45,24,29.96,29.86,2,1,10,0.00
2012-2-6,60.9,50.0,43.3,47.0,43.5,31.3,99,80,41,29.86,29.65,2,0,7,0.06
2012-2-7,54.8,37.7,46.0,47.4,12.4,-99.9,99,71,75,29.97,29.62,8,3,20,0.25
2012-2-8,69.1,33.5,52.0,51.4,-19.7,-99.9,79,37,49,30.11,29.94,3,1,10,0.00
2012-2-9,77.0,42.2,47.9,50.9,6.2,-99.9,87,53,36,30.14,30.01,3,1,7,0.00
2012-2-10,61.5,51.2,42.6,52.1,45.5,39.3,93,82,56,30.09,30.00,2,1,7,0.00
2012-2-11,53.9,47.9,40.2,51.8,46.5,39.2,100,95,83,29.96,29.89,3,1,7,0.05
2012-2-12,60.4,41.6,41.5,47.9,17.8,-99.9,100,76,63,29.98,29.89,3,-35,7,0.00
2012-2-13,48.2,42.7,39.9,47.9,41.8,39.3,100,97,88,29.91,29.77,4,1,17,0.36
2012-2-14,59.6,44.1,37.8,47.0,37.7,-99.9,100,85,48,29.99,29.87,3,1,10,0.01
2012-2-15,42.2,37.1,33.2,42.2,34.7,30.6,100,91,80,29.98,29.91,4,1,19,0.02
2012-2-16,63.5,49.4,40.8,31.4,27.2,23.0,66,44,26,30.12,30.00,5,3,20,0.00
2012-2-17,67.3,48.2,38.5,47.2,40.6,28.2,100,78,43,30.14,30.05,2,0,7,0.00
2012-2-18,61.6,41.0,37.8,50.2,17.2,-99.9,100,68,47,30.08,29.96,7,-94,13,0.01
2012-2-19,55.7,25.4,36.3,38.9,-23.6,-99.9,94,46,43,30.03,29.90,8,-322,13,0.00
2012-2-20,58.6,46.0,37.9,47.5,34.8,-99.9,99,79,63,30.07,29.95,4,-21,13,0.02
2012-2-21,46.4,44.4,42.6,45.2,42.6,40.7,99,93,87,30.12,30.07,3,2,8,0.00
2012-2-22,75.1,61.1,51.1,47.9,43.0,34.8,75,54,27,30.12,29.93,6,2,18,0.00
2012-2-23,73.5,59.4,47.9,45.5,29.0,18.3,84,35,19,29.93,29.79,7,3,24,0.00
2012-2-24,78.3,59.8,44.9,41.2,31.1,17.3,79,38,18,30.05,29.83,5,2,11,0.00
2012-2-25,58.9,46.8,40.9,41.5,35.2,32.3,86,66,38,30.16,30.04,11,4,26,0.00
2012-2-26,61.3,47.6,36.3,37.9,29.4,21.5,81,52,27,30.01,29.73,7,2,19,0.00
2012-2-27,54.2,40.3,31.8,40.0,33.3,29.5,94,78,49,29.86,29.70,5,1,16,0.00
2012-2-28,55.0,41.8,31.3,42.7,35.0,29.2,99,79,48,30.14,29.87,3,1,10,0.01
2012-2-29,52.0,37.6,36.5,49.7,18.7,-99.9,100,78,72,30.15,29.99,3,1,12,1.45
2012-3-1,50.7,40.0,35.3,50.7,38.2,-99.9,100,96,92,30.19,30.09,2,1,8,0.19
2012-3-2,64.0,33.2,35.2,39.1,-8.9,-99.9,99,45,23,30.23,30.11,6,-241,16,0.01
2012-3-3,67.1,15.1,57.5,38.8,-67.8,-99.9,42,9,32,30.19,30.15,5,-734,11,0.03
2012-3-4,81.6,63.2,47.7,44.9,39.3,33.1,69,43,25,30.10,29.91,4,2,11,0.00
2012-3-5,77.9,59.5,41.1,44.7,38.5,29.0,91,51,17,29.93,29.85,6,2,14,0.00
2012-3-6,54.8,45.0,36.0,43.4,32.8,24.0,98,67,31,29.89,29.82,6,2,21,0.00
2012-3-7,62.1,45.5,34.4,30.2,21.8,16.5,76,42,21,30.08,29.90,6,2,21,0.00
2012-3-8,73.2,50.7,38.5,37.2,29.8,22.2,56,46,22,30.20,30.07,1,0,10,0.00
2012-3-9,74.7,57.8,41.8,35.7,28.7,20.9,53,35,21,30.20,30.14,1,0,3,0.00
2012-3-10,66.8,55.3,36.8,47.3,40.9,29.5,87,60,43,29.98,29.86,2,0,12,0.00
2012-3-11,57.3,50.1,39.1,46.4,42.7,37.5,98,77,61,29.95,29.88,1,0,6,0.00
2012-3-12,61.6,47.7,36.5,45.4,41.7,36.2,99,82,49,29.92,29.86,1,0,7,0.00
2012-3-13,49.1,48.0,46.4,49.1,48.0,46.3,100,100,98,29.92,29.83,2,1,14,1.68
2012-3-14,52.0,50.3,48.8,52.0,50.3,48.8,100,100,100,30.04,29.89,0,0,5,2.59
2012-3-15,55.0,40.2,50.4,55.0,11.8,-99.9,100,75,100,30.05,29.96,0,-166,0,0.51
2012-3-16,52.5,47.4,44.6,52.5,31.9,-99.9,100,88,100,29.97,29.63,3,-48,10,1.68
2012-3-17,44.9,38.8,36.5,44.9,29.7,-99.9,100,87,83,29.62,29.39,7,-57,16,0.03
2012-3-18,50.1,37.9,36.5,41.6,21.8,-99.9,98,76,57,29.84,29.52,5,-64,18,0.00
2012-3-19,56.7,43.2,32.2,42.5,35.8,28.9,94,77,44,29.96,29.83,3,0,11,0.00
2012-3-20,68.4,54.9,43.2,49.7,43.7,34.6,85,67,48,30.06,29.96,2,0,7,0.00
2012-3-21,75.1,56.8,44.5,53.5,48.3,43.5,100,77,40,30.04,29.86,0,0,6,0.00
2012-3-22,64.2,52.1,42.6,51.6,47.5,42.6,100,86,59,29.89,29.81,4,1,11,0.00
2012-3-23,52.0,43.3,37.9,39.4,37.4,34.1,92,81,51,29.86,29.77,1,0,7,0.00
2012-3-24,48.6,35.6,37.9,48.6,17.2,-99.9,100,79,83,29.78,29.68,2,-120,11,0.16
2012-3-25,53.8,46.3,40.8,49.7,45.1,40.8,100,96,81,29.71,29.66,0,0,0,0.18
2012-3-26,53.2,45.4,39.2,44.5,41.1,37.7,98,86,65,29.99,29.80,0,0,0,0.00
2012-3-27,51.9,48.0,42.8,49.8,45.8,40.7,100,93,78,29.94,29.82,0,0,0,0.99
2012-3-28,57.0,51.8,48.0,54.8,50.9,47.1,100,97,85,30.01,29.86,0,0,0,0.15
2012-3-29,65.8,53.1,45.5,51.8,49.4,43.5,100,88,57,30.02,29.94,0,0,0,0.00
2012-3-30,69.1,51.5,46.1,56.2,49.4,45.0,100,93,62,29.98,29.80,0,0,0,0.00
2012-3-31,51.9,48.5,42.2,51.9,47.9,41.8,100,98,91,29.96,29.66,0,0,0,0.41
2012-4-1,59.5,50.0,40.3,42.6,37.5,31.7,99,66,37,30.14,29.94,6,2,20,0.09
2012-4-2,66.4,52.1,38.5,41.8,38.4,36.0,95,63,35,30.11,29.92,4,2,14,0.00
2012-4-3,68.3,53.1,42.9,51.0,42.7,34.8,89,70,34,29.96,29.87,4,1,12,0.00
2012-4-4,61.2,47.8,39.8,39.2,34.7,27.0,91,63,34,30.05,29.97,4,2,16,0.00
2012-4-5,57.5,43.7,33.5,35.7,32.2,29.2,84,66,39,30.05,29.97,5,2,16,0.00
2012-4-11,53.6,48.6,43.5,53.3,48.1,43.5,100,98,91,29.90,29.69,2,1,11,0.26
2012-4-12,58.3,49.1,44.8,52.5,47.1,44.1,100,94,62,29.94,29.71,3,1,17,1.41
2012-4-13,55.1,45.9,40.5,49.2,42.1,37.0,100,87,59,29.77,29.60,3,0,13,0.62
2012-4-14,66.1,50.1,40.5,45.6,41.0,36.4,99,73,42,30.03,29.76,2,0,13,0.00
2012-4-15,67.6,52.3,40.9,52.6,46.6,40.2,100,83,57,30.11,30.03,2,0,8,0.00
2012-4-16,75.1,63.4,42.2,50.7,41.8,31.3,92,48,25,30.11,30.04,1,0,7,0.00
2012-4-17,74.4,58.8,46.7,54.5,48.5,43.2,95,71,46,30.03,29.93,0,0,8,0.00
2012-4-18,72.5,57.5,44.5,49.6,43.5,36.7,94,64,32,30.02,29.96,4,1,17,0.00
2012-4-19,77.0,63.4,50.4,59.1,54.7,48.3,94,74,53,30.02,29.92,4,2,17,0.00
2012-4-20,88.2,72.5,56.9,61.0,55.0,48.5,96,58,28,29.93,29.82,3,1,14,0.00
2012-4-21,93.2,75.9,62.1,61.3,52.4,47.8,64,46,27,29.82,29.74,2,0,8,0.00
2012-4-22,68.8,60.8,51.6,56.3,53.9,49.9,100,79,63,29.78,29.72,0,0,7,0.00
2012-4-23,60.1,53.3,50.1,54.4,51.2,49.7,100,93,76,29.90,29.79,1,0,6,0.00
2012-4-24,74.7,58.3,48.8,57.5,51.5,47.7,100,80,54,29.93,29.83,1,0,10,0.00
2012-4-25,72.7,59.2,51.7,56.5,53.3,50.0,100,83,53,29.88,29.66,1,0,7,0.00
2012-4-26,62.9,53.4,41.8,53.9,47.0,38.8,100,81,46,30.08,29.66,3,1,14,0.00
2012-4-27,68.9,54.1,39.5,44.3,41.1,37.4,92,65,34,30.10,29.99,3,1,14,0.00
2012-4-28,78.3,53.9,46.4,53.0,29.8,-99.9,99,60,29,29.99,-32.77,2,-107,10,0.00
2012-4-29,81.1,64.3,48.6,57.8,52.0,45.9,100,69,32,29.79,29.73,2,0,13,0.00
2012-4-30,55.4,53.3,51.7,50.6,48.3,47.0,86,83,80,29.81,29.77,0,0,0,0.00
2012-5-1,72.1,52.0,41.6,51.7,42.5,36.3,99,73,30,29.81,29.77,2,0,10,0.00
2012-5-2,67.6,52.8,38.3,49.4,42.9,37.8,99,72,46,29.85,29.78,2,0,8,0.00
2012-5-3,61.6,51.2,41.3,51.6,46.9,40.6,99,86,63,29.97,29.83,1,0,8,0.00
2012-5-4,68.4,55.2,41.6,51.6,45.4,38.3,100,74,42,30.08,29.95,4,1,14,0.00
2012-5-5,76.0,58.5,41.8,44.8,39.7,32.2,90,55,24,30.06,29.91,5,1,18,0.00
2012-5-6,79.9,62.2,50.4,40.3,36.3,31.5,66,41,20,29.93,29.87,6,2,16,0.00
2012-5-7,89.9,70.5,56.0,44.6,36.8,27.7,56,33,11,29.86,29.79,3,1,13,0.00
2012-5-8,87.6,67.4,49.8,53.6,46.2,37.4,79,51,24,29.82,29.77,2,0,8,0.00
2012-5-9,83.8,49.6,47.3,55.4,12.2,-99.9,97,48,33,29.83,29.73,3,0,7,0.00
2012-5-10,83.4,54.8,44.2,53.9,29.5,-99.9,99,56,24,29.77,29.72,0,0,3,0.00
2012-5-11,79.4,48.4,52.0,55.0,15.5,-99.9,92,55,42,29.86,29.69,3,0,8,0.00
2012-5-12,83.6,45.8,44.8,57.2,7.4,-99.9,93,51,34,29.93,29.81,6,-153,7,0.00
2012-5-13,51.6,48.1,47.0,51.1,47.9,46.5,100,99,96,29.95,29.89,2,0,5,0.00
2012-5-14,70.8,6.8,59.6,48.6,-96.8,-99.9,67,3,67,29.96,29.88,4,0,6,0.00
2012-5-15,71.5,14.0,52.8,52.9,-65.4,-99.9,86,17,47,29.91,29.82,3,0,6,0.00
2012-5-16,79.8,37.8,44.3,56.7,-0.3,-99.9,100,56,45,29.90,29.81,1,0,7,0.00
2012-5-17,77.0,45.8,44.2,50.7,24.3,-99.9,100,65,32,29.84,29.75,3,0,10,0.00
2012-5-18,77.9,54.5,41.9,54.7,37.5,-99.9,99,69,40,29.86,29.77,3,-34,8,0.00
2012-5-19,78.8,55.7,43.3,54.5,43.0,-99.9,100,72,40,29.85,29.79,2,-12,7,0.00
2012-5-20,85.3,67.2,52.8,56.5,49.0,41.2,85,55,27,29.87,29.77,3,1,10,0.00
2012-5-21,80.1,63.0,50.1,56.6,51.3,45.4,91,68,39,29.96,29.84,3,1,11,0.00
2012-5-22,78.8,65.1,51.0,53.6,49.7,43.5,96,63,30,29.97,29.92,6,2,16,0.00
2012-5-23,74.7,59.0,46.8,47.0,43.4,35.5,92,61,27,29.89,29.78,4,1,17,0.00
2012-5-24,74.9,57.2,44.8,51.1,43.0,37.1,88,62,41,29.78,29.62,2,1,13,0.00
2012-5-25,62.9,52.0,42.8,43.4,41.0,36.5,91,67,48,29.74,29.59,5,2,14,0.00
2012-5-26,62.6,50.4,41.6,48.5,44.5,39.6,98,81,59,30.00,29.72,3,1,11,0.00
2012-5-27,72.7,57.3,48.0,53.2,47.3,43.4,86,71,48,30.03,29.93,3,1,11,0.00
2012-5-28,76.5,58.2,45.7,52.8,47.5,43.6,97,71,40,29.94,29.87,3,1,11,0.00
2012-5-29,73.9,57.3,42.9,52.8,46.4,39.6,91,69,46,29.93,29.88,3,1,8,0.00
2012-5-30,77.7,60.1,46.0,56.1,50.6,44.2,98,74,46,29.97,29.89,1,0,3,0.00
2012-5-31,86.3,69.9,54.7,58.5,51.9,44.3,75,55,28,29.90,29.72,0,0,0,0.00
2012-6-1,83.8,67.4,50.8,60.1,52.9,44.5,91,61,43,29.72,29.65,0,0,2,0.00
2012-6-2,83.4,62.7,47.1,59.6,52.5,46.5,99,72,41,29.82,29.71,4,1,11,0.00
2012-6-3,81.6,64.4,49.2,56.2,49.8,44.5,89,63,31,29.80,29.73,4,1,11,0.00
2012-6-4,59.8,55.9,52.6,56.4,51.3,48.1,99,85,74,29.92,29.75,3,1,10,0.00
2012-6-5,66.4,52.2,41.9,44.4,41.2,38.0,97,69,37,30.05,29.98,5,1,16,0.00
2012-6-6,75.8,58.8,43.9,50.0,41.5,27.9,88,58,18,29.99,29.84,4,1,12,0.00
2012-6-7,79.9,62.1,44.8,53.3,48.3,42.2,97,65,35,29.89,29.83,4,1,14,0.00
2012-6-8,78.6,60.9,49.9,49.3,46.8,41.2,90,66,27,29.84,29.80,4,1,11,0.00
2012-6-9,77.4,62.4,41.5,40.5,36.3,31.7,91,44,19,29.83,29.71,5,2,18,0.00
2012-6-10,89.0,74.2,59.6,43.7,34.9,29.4,38,25,14,29.75,29.69,5,2,13,0.00
2012-6-11,89.5,78.9,63.9,47.6,41.2,31.1,38,26,21,29.81,29.73,3,1,10,0.00
2012-6-12,84.1,64.4,49.8,57.2,51.7,45.3,88,66,38,29.82,29.77,0,0,2,0.00
2012-6-13,75.4,59.8,49.6,56.5,51.3,47.4,97,76,50,29.80,29.65,3,1,8,0.00
2012-6-14,73.5,57.6,48.2,55.9,50.7,45.5,99,80,51,29.71,29.64,3,1,10,0.00
2012-6-15,78.1,59.7,46.8,53.7,49.3,43.6,97,72,40,29.71,29.65,3,1,10,0.00
2012-6-16,95.9,74.0,54.4,58.3,52.5,45.4,89,52,21,29.71,29.64,3,1,10,0.00
2012-6-17,84.0,66.0,52.6,60.6,53.4,48.3,89,66,43,29.77,29.68,0,0,2,0.00
2012-6-18,74.0,58.0,48.5,56.4,51.3,46.4,99,80,53,29.80,29.74,4,1,10,0.00
2012-6-19,74.7,58.3,47.0,55.8,50.6,46.5,99,78,49,29.80,29.70,3,1,8,0.00
2012-6-20,83.4,68.1,53.2,56.5,51.9,44.0,93,59,36,29.72,29.65,0,0,2,0.00
2012-6-21,70.4,56.8,47.7,54.8,50.5,44.6,99,81,56,29.85,29.68,3,1,8,0.00
2012-6-22,72.0,57.3,47.7,54.0,49.8,44.9,98,78,51,29.84,29.72,3,1,10,0.00
2012-6-23,74.4,58.9,48.2,51.2,44.2,-99.9,93,64,38,29.81,29.70,3,-8,11,0.00
2012-6-24,75.8,58.9,43.6,50.1,43.3,39.6,87,59,35,29.89,29.80,4,1,11,0.00
2012-6-25,73.7,58.6,43.5,53.5,45.3,38.7,86,63,42,29.95,29.88,4,1,11,0.00
2012-6-26,79.9,63.3,48.5,46.6,43.4,35.5,88,53,23,29.91,29.74,4,2,18,0.00
2012-6-27,85.3,66.7,50.7,50.9,41.3,-99.9,74,46,18,29.81,29.72,4,-13,8,0.00
2012-6-28,85.5,67.6,53.2,55.2,49.8,43.0,82,56,30,29.93,29.81,4,1,11,0.00
2012-6-29,81.2,64.3,51.9,58.0,52.6,-99.9,97,71,44,29.95,29.87,3,-8,12,0.00
2012-6-30,82.6,67.2,53.6,61.6,57.4,51.8,97,73,48,29.88,29.79,3,0,11,0.00
2012-7-1,79.6,64.4,58.0,59.8,56.4,52.5,92,77,48,29.83,29.73,2,1,8,0.00
2012-7-2,75.6,62.3,50.7,60.3,55.9,48.2,99,82,57,29.81,29.72,3,1,8,0.00
2012-7-3,80.1,61.8,49.9,57.5,52.9,48.0,97,76,45,29.81,29.71,4,1,10,0.00
2012-7-4,72.1,56.9,50.1,54.8,51.2,49.5,98,83,50,29.80,29.68,4,1,8,0.00
2012-7-5,76.0,60.3,49.8,56.4,51.6,48.2,98,76,50,29.87,29.79,3,1,8,0.00
2012-7-6,79.6,62.8,47.3,57.8,52.6,46.0,98,73,45,29.89,29.83,3,1,8,0.00
2012-7-7,84.0,66.8,51.7,59.5,52.9,43.5,92,63,40,29.85,29.81,0,0,2,0.00
2012-7-8,78.5,61.9,46.8,58.5,53.2,45.7,99,76,50,29.89,29.81,3,1,7,0.00
2012-7-9,84.5,65.5,49.5,60.6,54.5,48.8,98,71,43,29.89,29.81,2,0,7,0.00
2012-7-10,91.4,69.8,55.4,60.2,50.7,-99.9,80,55,27,29.81,29.69,0,-10,0,0.00
2012-7-11,90.5,76.0,62.7,60.3,52.1,39.0,66,44,34,29.74,29.66,4,1,7,0.00
2012-7-12,83.0,67.4,51.4,58.8,53.6,48.9,91,63,42,29.74,29.65,3,0,7,0.00
2012-7-13,76.0,61.6,47.9,56.7,52.7,46.3,99,75,51,29.81,29.70,3,1,8,0.00
2012-7-14,69.9,58.5,51.4,55.8,51.8,49.1,93,79,60,29.85,29.76,3,1,10,0.00
2012-7-15,75.6,58.7,49.6,56.3,52.0,49.1,99,81,48,29.81,29.74,3,1,7,0.00
2012-7-16,63.7,55.0,51.1,55.0,51.1,48.0,99,88,64,29.82,29.72,2,1,8,0.00
2012-7-17,68.1,57.5,50.8,52.8,50.2,48.4,93,78,56,29.87,29.79,2,0,8,0.00
2012-7-18,76.0,62.2,50.7,56.5,52.1,48.7,95,72,47,29.88,29.83,3,1,10,0.00
2012-7-19,58.3,51.9,50.1,52.0,50.0,48.8,98,93,79,29.88,29.82,2,0,6,0.00
2012-7-20,90.7,80.3,51.9,59.1,50.9,46.8,94,41,23,29.93,29.83,4,2,13,0.00
2012-7-21,91.4,76.9,62.6,59.7,52.0,44.1,60,43,32,29.83,29.79,3,1,8,0.00
2012-7-22,77.7,66.0,52.3,58.6,54.4,48.4,89,68,51,29.79,29.72,4,2,10,0.00
2012-7-23,72.5,52.8,50.4,56.9,41.9,-99.9,98,81,57,29.86,29.79,3,-54,11,0.00
2012-7-24,53.2,49.9,51.6,51.7,44.1,-99.9,98,91,92,29.86,29.81,1,-45,5,0.00
2012-7-29,77.7,60.2,50.1,58.6,53.3,49.3,99,81,51,29.93,29.84,3,1,8,0.00
2012-7-30,87.2,67.5,50.5,60.5,54.4,47.1,99,68,34,29.85,29.76,3,1,8,0.00
2012-7-31,83.6,67.5,55.1,59.6,53.3,44.8,93,62,43,29.86,29.78,3,1,8,0.00
2012-8-1,80.3,62.2,46.7,58.2,53.0,44.5,97,75,45,29.92,29.84,0,0,1,0.00
2012-8-2,82.0,63.7,50.1,59.4,52.9,42.6,98,71,44,29.86,29.77,0,0,0,0.00
2012-8-3,72.3,58.4,47.0,56.4,52.1,46.5,99,81,56,29.79,29.73,0,0,1,0.00
2012-8-4,63.2,56.8,51.3,55.9,53.8,50.8,99,90,75,29.85,29.71,2,1,8,0.00
2012-8-5,78.8,63.1,53.3,61.6,56.7,51.8,99,82,53,29.94,29.84,3,1,7,0.00
2012-8-6,93.6,70.5,50.7,59.9,52.9,48.4,98,61,26,29.96,29.87,4,1,11,0.00
2012-8-7,93.6,73.8,59.9,58.5,48.5,40.1,62,44,17,29.89,29.82,3,2,10,0.00
2012-8-8,96.3,75.3,57.2,53.0,44.3,34.3,60,36,12,29.85,29.75,4,1,11,0.00
2012-8-9,94.3,76.9,61.3,59.6,47.1,27.9,56,36,23,29.78,29.68,3,1,8,0.00
2012-8-10,92.5,76.3,62.7,60.7,50.4,35.2,76,42,27,29.68,29.60,3,1,7,0.00
2012-8-11,93.4,77.0,64.0,58.7,52.7,43.8,66,44,28,29.63,29.58,3,1,7,0.00
2012-8-12,93.6,76.4,54.5,56.3,54.0,47.3,85,49,26,29.71,29.65,0,0,3,0.00
2012-8-13,91.0,72.5,57.3,59.8,55.2,50.8,82,57,33,29.70,29.64,3,0,7,0.00
2012-8-14,82.2,63.3,53.5,58.7,50.1,-99.9,87,68,41,29.69,29.63,3,-15,10,0.00
2012-8-15,79.6,69.0,52.3,58.3,55.5,50.9,97,64,48,29.73,29.65,4,1,7,0.00
2012-8-16,85.9,69.6,50.1,59.7,55.9,49.3,98,65,40,29.81,29.74,3,1,7,0.00
2012-8-17,93.6,72.8,55.1,59.5,53.0,44.0,90,54,20,29.83,29.75,4,2,12,0.00
2012-8-18,92.3,74.0,60.7,59.0,52.8,45.2,75,49,28,29.81,29.73,5,2,10,0.00
2012-8-19,88.8,70.4,56.2,59.7,53.8,48.7,81,59,31,29.81,29.74,4,1,10,0.00
2012-8-20,83.2,66.7,54.7,58.8,52.6,44.7,88,62,42,29.78,29.73,3,1,8,0.00
2012-8-21,82.2,63.7,51.1,58.6,53.3,47.7,92,72,43,29.80,29.73,1,0,3,0.00
2012-8-22,75.1,60.5,47.3,57.8,53.3,46.5,98,79,53,29.81,29.74,3,1,8,0.00
2012-8-23,77.7,58.6,48.9,58.8,50.5,-99.9,99,80,50,29.83,29.73,4,-13,8,0.00
2012-8-24,72.8,57.2,46.5,56.6,51.0,-99.9,98,83,55,29.81,29.74,4,-4,8,0.00
2012-8-25,71.8,56.8,50.8,55.8,51.9,49.8,98,85,56,29.78,29.71,3,1,10,0.00
2012-8-26,75.6,60.9,51.7,55.1,50.7,46.7,92,71,47,29.85,29.73,4,1,13,0.00
2012-8-27,90.3,69.3,48.9,55.3,49.3,43.8,87,54,22,29.89,29.80,5,2,13,0.00
2012-8-28,90.5,74.0,58.3,55.1,49.8,42.1,74,45,25,29.85,29.77,6,2,13,0.00
2012-8-29,92.3,73.9,58.7,53.7,45.5,35.7,63,39,17,29.79,29.64,3,1,8,0.00
2012-8-30,77.6,64.4,52.9,57.3,50.0,41.1,96,62,43,29.73,29.62,4,1,10,0.00
2012-8-31,73.9,58.1,50.4,55.6,51.2,47.6,97,80,50,29.86,29.72,3,1,8,0.00
2012-9-1,75.8,59.3,50.1,54.1,49.9,47.0,93,73,46,29.92,29.83,3,1,8,0.00
2012-9-2,85.5,67.3,52.2,55.8,48.2,36.9,93,54,26,29.84,29.77,3,1,7,0.00
2012-9-3,91.4,70.3,58.6,52.6,47.3,42.1,66,46,22,29.82,29.76,3,1,8,0.00
2012-9-4,82.4,64.8,50.5,55.7,48.2,36.2,87,57,37,29.87,29.81,3,1,10,0.00
2012-9-5,82.6,62.7,53.1,58.0,50.6,42.6,87,66,39,29.85,29.80,3,1,10,0.00
2012-9-6,82.6,62.1,51.3,56.9,47.0,-99.9,92,64,25,29.87,29.80,3,-8,8,0.00
2012-9-7,83.0,64.6,51.4,53.8,46.2,-99.9,82,56,26,29.93,29.85,0,-9,2,0.00
2012-9-8,84.7,65.4,52.2,56.5,51.6,48.4,88,64,33,29.91,29.80,3,1,8,0.00
2012-9-9,86.7,65.8,51.7,54.3,49.0,40.4,85,58,27,29.85,29.75,4,2,11,0.00
2012-9-10,79.6,61.6,50.4,56.4,51.3,47.2,92,71,42,29.79,29.72,1,0,5,0.00
2012-9-11,77.2,57.8,45.7,57.6,50.9,44.6,98,80,49,29.85,29.70,3,1,8,0.00
2012-9-12,79.9,61.2,47.4,59.9,52.3,42.4,94,75,44,29.94,29.83,3,0,7,0.00
2012-9-13,84.7,68.1,54.2,61.1,56.3,50.0,92,68,43,29.95,29.86,1,0,2,0.00
2012-9-14,84.7,67.2,56.3,60.5,55.6,52.1,88,69,42,29.94,29.86,3,1,6,0.00
2012-9-15,88.0,69.2,56.3,58.4,53.1,44.7,83,59,34,29.93,29.84,1,0,2,0.00
2012-9-16,82.8,65.3,49.9,55.1,48.9,41.6,96,58,32,29.89,29.83,3,1,8,0.00
2012-9-17,71.5,55.6,48.0,54.2,49.9,45.8,97,83,51,29.94,29.85,3,1,8,0.00
2012-9-18,77.4,59.2,46.8,55.5,50.3,46.0,98,76,45,29.97,29.88,3,1,7,0.00
2012-9-19,82.8,60.5,48.3,55.1,49.5,45.9,93,71,35,29.96,29.88,5,2,12,0.00
2012-9-20,82.6,62.2,49.1,54.3,45.1,-99.9,90,60,24,29.93,29.80,4,-8,12,0.00
2012-9-21,83.4,66.3,52.2,55.1,48.6,37.4,81,55,35,29.86,29.75,3,1,7,0.00
2012-9-22,84.0,69.8,57.0,54.9,48.4,39.0,67,47,35,29.78,29.74,3,1,8,0.00
2012-9-23,86.1,67.3,52.9,52.7,45.5,29.3,79,48,25,29.83,29.74,3,1,10,0.00
2012-9-24,72.1,55.6,44.5,55.8,48.7,28.8,97,80,36,29.85,29.77,3,1,8,0.00
2012-9-25,77.0,58.3,46.1,56.3,50.8,45.0,98,79,46,29.81,29.74,3,1,7,0.00
2012-9-26,74.2,56.5,47.6,56.2,51.0,46.4,98,84,53,29.79,29.72,3,1,8,17.96
2012-9-27,83.8,65.0,49.6,58.1,52.6,46.6,97,67,41,29.79,29.72,4,0,7,22.59
2012-9-28,69.6,58.2,47.7,56.6,51.8,46.3,97,80,61,29.84,29.72,3,1,8,19.36
2012-9-29,86.1,66.5,52.6,59.0,54.0,44.3,98,68,38,29.89,29.82,3,1,7,19.37
2012-9-30,96.8,81.0,65.6,52.7,40.7,30.6,57,27,13,29.89,29.79,5,2,13,19.55
2012-10-1,101.2,86.7,72.7,39.7,32.3,23.0,26,15,10,29.83,29.71,7,3,18,18.79
2012-10-2,103.6,86.4,75.6,43.3,35.5,25.4,27,17,9,29.72,29.62,3,1,8,19.02
2012-10-3,81.8,69.1,56.2,57.7,47.4,33.8,90,52,22,29.87,29.66,3,1,8,19.84
2012-10-4,71.3,58.0,52.9,55.8,53.0,50.2,96,84,57,30.01,29.87,2,1,7,0.00
2012-10-5,74.6,60.7,50.4,56.3,52.6,49.6,98,77,50,30.03,29.92,3,1,8,0.00
2012-10-6,73.2,60.6,53.5,52.4,50.0,47.3,83,69,47,29.93,29.82,4,2,12,0.00
2012-10-7,74.9,60.0,48.0,51.7,48.3,44.9,89,68,41,29.88,29.79,3,1,10,0.00
2012-10-8,74.6,59.6,49.4,53.7,49.6,45.7,90,72,43,29.90,29.85,4,1,8,0.00
2012-10-9,73.5,59.5,48.6,53.7,49.2,45.2,93,71,41,29.90,29.80,3,1,8,0.00
2012-10-10,64.3,57.2,53.2,58.9,54.0,49.7,98,89,77,29.83,29.77,2,0,7,0.14
2012-10-11,54.1,52.4,51.3,52.6,50.9,49.7,98,95,89,29.86,29.77,1,0,6,0.02
2012-10-12,56.2,53.5,49.1,55.3,52.1,48.3,98,95,87,30.10,29.84,3,0,7,0.02
2012-10-13,73.3,59.0,47.7,53.7,50.5,45.8,97,76,45,30.16,30.03,3,2,10,0.00
2012-10-14,77.9,65.4,55.3,58.2,54.7,51.5,92,70,46,30.06,29.92,5,2,13,0.00
2012-10-15,80.3,68.6,57.8,56.3,52.3,46.7,82,58,31,29.93,29.82,4,2,12,0.00
2012-10-16,82.2,69.3,61.3,62.5,59.0,54.3,87,71,51,29.85,29.73,4,1,13,0.00
2012-10-17,84.7,73.4,59.9,54.8,30.9,16.1,73,26,11,29.75,29.67,5,2,19,0.00
2012-10-18,88.0,73.5,62.0,62.8,43.7,20.9,91,43,13,29.89,29.70,4,1,11,0.00
2012-10-19,77.9,64.6,53.8,63.4,59.5,52.7,98,85,58,29.92,29.78,3,0,7,0.00
2012-10-20,71.3,56.7,47.7,57.7,51.2,43.4,99,83,53,29.78,29.69,3,1,7,0.00
2012-10-21,65.2,53.3,43.9,48.9,43.9,38.1,97,73,45,29.83,29.72,3,0,7,0.00
2012-10-22,60.1,51.7,48.0,55.0,48.1,43.3,99,88,56,29.84,29.66,3,1,11,0.00
2012-10-23,60.4,49.4,44.9,53.0,40.5,-99.9,99,81,51,29.93,29.82,2,-30,6,0.00
2012-10-24,60.2,51.0,45.1,54.0,48.9,40.6,99,93,79,30.08,29.92,2,0,6,0.00
2012-10-25,62.1,54.3,50.1,53.7,50.4,47.1,94,87,71,30.11,30.05,4,1,12,0.00
2012-10-26,70.9,64.7,48.2,45.3,36.6,30.8,70,37,24,30.08,29.93,5,3,12,0.00
2012-10-27,77.7,67.2,60.5,52.1,49.6,44.4,70,54,36,29.93,29.81,7,3,18,0.00
2012-10-28,81.8,67.6,59.9,57.5,52.6,49.3,74,60,36,29.87,29.79,3,1,10,0.00
2012-10-29,80.1,64.6,55.7,57.0,53.0,49.6,86,68,42,29.95,29.87,3,0,7,0.00
2012-10-30,75.6,60.2,49.6,56.9,52.1,48.5,97,76,47,29.95,29.84,1,0,2,0.00
2012-10-31,57.0,52.3,46.1,53.9,50.4,45.0,99,93,84,29.93,29.84,1,0,5,0.00
2012-11-1,60.9,56.6,52.8,59.9,54.7,47.1,99,94,80,29.92,29.86,4,1,11,0.00
2012-11-2,67.6,56.6,49.1,55.5,48.4,42.1,89,74,60,29.94,29.89,6,2,14,0.00
2012-11-3,74.7,60.7,50.2,53.0,48.5,43.5,89,66,35,30.00,29.92,4,1,11,0.00
2012-11-4,77.9,67.3,58.6,53.6,49.2,44.9,70,53,41,30.06,29.98,5,2,16,0.00
2012-11-5,89.5,72.1,64.5,52.2,44.7,30.6,53,39,19,29.99,29.88,4,1,10,0.00
2012-11-6,88.2,72.7,62.7,51.9,42.3,31.7,58,35,20,29.92,29.84,2,0,7,0.00
2012-11-7,69.3,58.9,50.8,54.1,48.1,39.8,97,70,44,29.91,29.81,3,1,7,0.00
2012-11-8,58.3,48.8,39.8,48.6,42.8,38.8,97,81,54,29.86,29.78,2,1,8,0.00
2012-11-9,56.6,44.9,38.6,44.0,39.6,35.5,98,83,49,29.88,29.77,3,1,11,0.00
2012-11-10,54.4,44.0,37.9,43.0,34.5,-99.9,96,74,49,30.13,29.87,4,-9,12,0.00
2012-11-11,60.5,47.4,38.9,40.8,34.9,31.2,84,63,37,30.24,30.13,2,0,7,0.00
2012-11-12,62.4,51.4,42.6,39.1,34.5,24.1,70,54,34,30.23,30.10,5,2,12,0.00
2012-11-13,70.6,57.7,46.1,37.4,32.4,25.3,51,39,27,30.10,29.94,7,3,12,0.00
2012-11-14,69.3,59.2,51.4,45.7,40.5,36.0,63,50,39,29.95,29.88,6,2,12,0.00
2012-11-15,68.4,65.1,54.1,50.0,45.1,26.7,68,49,33,29.88,29.82,2,0,7,0.00
2012-11-16,69.9,62.5,54.5,55.2,50.4,-99.9,98,68,50,29.85,29.71,4,-5,12,0.15
2012-11-17,60.1,54.9,51.4,59.8,54.5,50.9,99,99,98,29.88,29.69,4,1,14,1.06
2012-11-18,56.9,50.2,46.1,53.6,46.7,-99.9,99,91,67,30.06,29.88,3,-11,10,0.00
2012-11-19,62.9,51.0,45.4,49.0,42.8,-99.9,92,76,56,30.13,30.05,2,-11,7,0.00
2012-11-20,55.4,53.8,50.1,55.1,53.0,47.9,99,97,92,30.07,29.96,2,1,7,0.00
2012-11-21,66.0,55.1,48.6,58.6,50.6,35.7,99,86,56,30.06,29.94,5,2,14,0.00
2012-11-22,62.0,53.1,46.5,46.4,42.2,37.3,85,67,52,30.11,30.04,5,3,13,0.00
2012-11-23,67.4,58.3,50.5,49.2,42.0,34.1,66,55,37,30.09,30.01,6,3,13,0.00
2012-11-24,69.3,59.6,52.2,48.7,43.3,36.7,67,55,41,30.03,29.88,7,3,16,0.00
2012-11-25,66.8,57.6,48.3,52.0,45.0,38.3,87,63,50,29.88,29.78,5,2,13,0.00
2012-11-26,63.9,53.1,48.0,51.3,45.0,38.0,94,75,51,29.95,29.82,3,0,7,0.00
2012-11-27,55.7,51.3,47.6,50.0,48.1,45.5,98,89,79,29.99,29.88,2,0,10,0.00
2012-11-28,56.0,52.4,47.1,55.7,51.1,44.6,99,95,82,29.96,29.77,6,2,22,0.00
2012-11-29,56.9,53.5,49.9,56.6,53.2,49.6,99,99,99,29.95,29.81,4,2,16,0.00
2012-11-30,56.6,55.4,53.3,56.3,55.1,53.0,99,99,99,29.93,29.74,3,2,19,0.00
2012-12-1,57.8,55.1,53.3,57.5,54.8,53.0,99,99,99,29.95,29.87,4,2,16,0.00
2012-12-7,66.0,49.2,45.5,42.5,37.4,31.2,80,64,41,29.95,29.92,2,0,6,0.06
2012-12-8,58.1,49.5,43.5,44.4,37.6,31.8,82,64,48,29.94,29.88,5,2,13,0.06
2012-12-9,62.4,55.5,46.2,39.0,34.2,28.1,63,45,37,30.03,29.93,9,4,22,0.00
2012-12-10,66.1,57.3,51.7,44.1,39.0,35.9,60,50,41,30.07,29.96,5,2,18,0.00
2012-12-11,64.8,53.1,45.8,48.2,41.9,35.0,97,68,47,29.96,29.75,3,0,8,0.00
2012-12-12,51.0,44.7,38.0,46.6,41.6,35.8,98,89,70,29.78,29.71,3,0,8,0.09
2012-12-13,47.1,39.5,37.2,40.3,36.7,34.4,96,90,77,29.78,29.75,3,1,8,0.09
2012-12-16,51.0,49.8,49.4,49.6,48.9,46.7,99,97,87,29.98,29.93,1,0,8,0.15
2012-12-17,53.5,48.5,39.8,53.2,48.1,39.3,99,99,98,29.96,29.85,2,0,10,0.67
2012-12-18,48.2,40.0,34.0,39.8,32.7,29.1,98,76,50,30.06,29.86,5,1,13,0.67
2012-12-19,52.6,39.4,32.5,36.7,28.6,21.9,85,66,43,30.19,30.06,3,0,11,0.00
2012-12-20,53.2,41.6,34.0,41.6,32.5,24.7,84,70,56,30.11,29.95,2,0,8,0.00
2012-12-21,49.1,46.5,43.1,48.8,43.5,30.6,99,90,58,29.89,29.80,4,1,16,0.60
2012-12-22,50.4,48.2,46.4,50.1,47.9,46.1,99,99,99,29.99,29.75,3,1,14,0.97
2012-12-23,53.5,48.5,44.6,53.2,48.2,44.3,99,99,99,29.99,29.77,4,1,17,3.25
2012-12-24,53.1,45.4,40.1,46.4,40.5,30.3,99,84,56,30.07,29.89,4,1,12,0.01
2012-12-25,47.1,43.8,39.9,45.7,40.4,31.3,99,88,60,30.02,29.73,4,1,16,0.65
2012-12-26,48.6,42.8,38.5,48.0,42.0,38.0,100,97,91,29.98,29.77,3,1,11,0.16
2012-12-27,50.2,41.5,37.6,40.9,37.5,33.8,98,86,65,30.05,29.97,4,1,11,0.16
2012-12-28,48.8,41.9,37.5,42.0,37.4,33.2,96,84,71,30.06,29.89,1,0,5,0.09
2012-12-29,46.5,41.2,36.6,41.7,38.6,33.8,97,91,80,29.97,29.85,4,1,8,0.04
2012-12-30,50.5,42.2,36.3,41.6,35.4,31.8,90,77,61,30.03,29.91,5,2,14,0.05
2012-12-31,54.2,41.5,34.1,36.5,28.8,23.5,82,62,35,30.16,30.03,5,1,11,0.00
2013-1-1,54.1,42.6,36.8,38.6,33.2,23.6,88,70,45,30.13,30.04,5,2,14,0.00